Hlavní strana
METAR-TAF:

METAR-TAF

Letiště :

Letiště Madeira

Funchal, Madeira, Portugalsko

zeměpisná šířka: 32-41-52N, zeměpisná délka: 016-46-28W, výška: 59 m

Aktuální stav počasí

Zpráva byla vytvořena před 15 minutami, v 10:30 UTC
Severní vítr 13 kt, proměnlivý mezi severozápadním a severovýchodním
Teplota 16°C
Vlhkost vzduchu 51%
Tlak 1032 hPa
Viditelnost 10 km a více
Polojasno ve výšce 1800 ft

METAR: LPMA 251030Z 35013KT 310V040 9999 SCT018 16/06 Q1032

Čas: 10:45 (10:45 UTC)

Předpověď počasí

Zpráva byla vytvořena před 5 hodinami a 45 minutami, v 05:00 UTC
Předpověď platná od 25 v 06 UTC do 26 v 06 UTC
Severní vítr 13 kt
Viditelnost 10 km a více
Polojasno ve výšce 1500 ft
Dočasný
od 25 v 06 UTC do 26 v 06 UTC
Severní vítr 18 kt s nárazy do 30 kt
Oblačno až skoro zataženo ve výšce 1500 ft
Pravděpodobnost 40% :
Dočasný
od 25 v 09 UTC do 25 v 20 UTC
Severní vítr 23 kt s nárazy do 35 kt

TAF: LPMA 250500Z 2506/2606 01013KT 9999 SCT015 TEMPO 2506/2606 01018G30KT BKN015 PROB40 TEMPO 2509/2520 01023G35KT

Stav a předpovědi počasí z více než 4 000 letišť (zprávy METAR a TAF).

Červené a žluté tečky na mapě představují dostupné meteorologické stanice.

Když kurzor umístíte na tečku, zobrazí se název stanice.

Pak kliknutím zobrazíte stav a předpověď počasí.

Chcete-li změnit mapu, kliknutím na zelené tlačítko se znaménkem +mapu přiblížíte, kliknutím na zelené tlačítko se znaménkem – mapu oddálíte a kliknutím na zelené šipky přejdete na sousední mapy.


METAR-TAF: